sensor_id;sensor_type;location;lat;lon;timestamp;P1;durP1;ratioP1;P2;durP2;ratioP2
6017;SDS011;3037;51.068;13.780;2024-03-02T00:00:01;67.93;;;39.30;;
6017;SDS011;3037;51.068;13.780;2024-03-02T00:02:34;75.70;;;39.03;;
6017;SDS011;3037;51.068;13.780;2024-03-02T00:05:13;65.10;;;38.77;;
6017;SDS011;3037;51.068;13.780;2024-03-02T00:07:46;74.90;;;38.77;;
6017;SDS011;3037;51.068;13.780;2024-03-02T00:10:19;73.33;;;41.10;;
6017;SDS011;3037;51.068;13.780;2024-03-02T00:12:50;69.13;;;39.83;;
6017;SDS011;3037;51.068;13.780;2024-03-02T00:18:18;73.23;;;41.20;;
6017;SDS011;3037;51.068;13.780;2024-03-02T00:20:45;73.13;;;39.57;;
6017;SDS011;3037;51.068;13.780;2024-03-02T00:23:13;72.13;;;39.60;;
6017;SDS011;3037;51.068;13.780;2024-03-02T00:25:42;77.27;;;37.23;;
6017;SDS011;3037;51.068;13.780;2024-03-02T00:31:02;69.90;;;40.87;;
6017;SDS011;3037;51.068;13.780;2024-03-02T00:33:33;72.37;;;40.43;;
6017;SDS011;3037;51.068;13.780;2024-03-02T00:36:01;70.03;;;40.83;;
6017;SDS011;3037;51.068;13.780;2024-03-02T00:38:28;88.63;;;42.17;;
6017;SDS011;3037;51.068;13.780;2024-03-02T00:40:54;61.80;;;38.53;;
6017;SDS011;3037;51.068;13.780;2024-03-02T00:46:06;72.33;;;38.20;;
6017;SDS011;3037;51.068;13.780;2024-03-02T00:48:31;55.17;;;37.70;;
6017;SDS011;3037;51.068;13.780;2024-03-02T00:51:00;56.07;;;37.20;;
6017;SDS011;3037;51.068;13.780;2024-03-02T00:53:28;65.30;;;38.20;;
6017;SDS011;3037;51.068;13.780;2024-03-02T00:55:55;59.97;;;36.33;;
6017;SDS011;3037;51.068;13.780;2024-03-02T00:58:20;65.17;;;38.63;;
6017;SDS011;3037;51.068;13.780;2024-03-02T01:00:46;73.53;;;39.97;;
6017;SDS011;3037;51.068;13.780;2024-03-02T01:03:11;62.87;;;36.53;;
6017;SDS011;3037;51.068;13.780;2024-03-02T01:05:41;60.80;;;39.03;;
6017;SDS011;3037;51.068;13.780;2024-03-02T01:08:07;66.07;;;39.03;;
6017;SDS011;3037;51.068;13.780;2024-03-02T01:10:33;61.77;;;39.80;;
6017;SDS011;3037;51.068;13.780;2024-03-02T01:12:59;54.07;;;36.30;;
6017;SDS011;3037;51.068;13.780;2024-03-02T01:15:24;59.03;;;38.20;;
6017;SDS011;3037;51.068;13.780;2024-03-02T01:17:50;61.10;;;37.77;;
6017;SDS011;3037;51.068;13.780;2024-03-02T01:20:15;52.97;;;33.43;;
6017;SDS011;3037;51.068;13.780;2024-03-02T01:22:41;52.67;;;34.37;;
6017;SDS011;3037;51.068;13.780;2024-03-02T01:25:08;58.93;;;36.00;;
6017;SDS011;3037;51.068;13.780;2024-03-02T01:27:33;48.00;;;34.03;;
6017;SDS011;3037;51.068;13.780;2024-03-02T01:29:59;54.53;;;34.40;;
6017;SDS011;3037;51.068;13.780;2024-03-02T01:32:24;50.13;;;34.50;;
6017;SDS011;3037;51.068;13.780;2024-03-02T01:34:50;55.50;;;35.60;;
6017;SDS011;3037;51.068;13.780;2024-03-02T01:37:16;57.20;;;36.37;;
6017;SDS011;3037;51.068;13.780;2024-03-02T01:39:41;55.77;;;38.57;;
6017;SDS011;3037;51.068;13.780;2024-03-02T01:42:07;60.00;;;36.93;;
6017;SDS011;3037;51.068;13.780;2024-03-02T01:44:32;56.87;;;36.30;;
6017;SDS011;3037;51.068;13.780;2024-03-02T01:46:58;50.73;;;35.17;;
6017;SDS011;3037;51.068;13.780;2024-03-02T01:49:23;59.50;;;36.50;;
6017;SDS011;3037;51.068;13.780;2024-03-02T01:51:49;59.50;;;37.13;;
6017;SDS011;3037;51.068;13.780;2024-03-02T01:54:14;57.93;;;36.47;;
6017;SDS011;3037;51.068;13.780;2024-03-02T01:56:40;60.50;;;34.40;;
6017;SDS011;3037;51.068;13.780;2024-03-02T01:59:05;49.67;;;33.33;;
6017;SDS011;3037;51.068;13.780;2024-03-02T02:01:31;51.50;;;34.60;;
6017;SDS011;3037;51.068;13.780;2024-03-02T02:03:57;51.37;;;33.87;;
6017;SDS011;3037;51.068;13.780;2024-03-02T02:06:22;66.10;;;35.83;;
6017;SDS011;3037;51.068;13.780;2024-03-02T02:08:48;60.03;;;35.13;;
6017;SDS011;3037;51.068;13.780;2024-03-02T02:11:16;55.47;;;34.67;;
6017;SDS011;3037;51.068;13.780;2024-03-02T02:13:42;55.07;;;33.87;;
6017;SDS011;3037;51.068;13.780;2024-03-02T02:16:08;64.63;;;35.20;;
6017;SDS011;3037;51.068;13.780;2024-03-02T02:18:34;57.53;;;35.37;;
6017;SDS011;3037;51.068;13.780;2024-03-02T02:21:00;73.93;;;35.17;;
6017;SDS011;3037;51.068;13.780;2024-03-02T02:23:26;60.87;;;37.60;;
6017;SDS011;3037;51.068;13.780;2024-03-02T02:25:52;57.13;;;35.90;;
6017;SDS011;3037;51.068;13.780;2024-03-02T02:28:17;57.73;;;34.83;;
6017;SDS011;3037;51.068;13.780;2024-03-02T02:30:43;67.13;;;39.00;;
6017;SDS011;3037;51.068;13.780;2024-03-02T02:33:08;65.07;;;38.17;;
6017;SDS011;3037;51.068;13.780;2024-03-02T02:35:34;67.03;;;39.30;;
6017;SDS011;3037;51.068;13.780;2024-03-02T02:38:00;70.50;;;42.30;;
6017;SDS011;3037;51.068;13.780;2024-03-02T02:40:27;67.70;;;41.40;;
6017;SDS011;3037;51.068;13.780;2024-03-02T02:42:55;74.03;;;43.10;;
6017;SDS011;3037;51.068;13.780;2024-03-02T02:45:21;78.17;;;43.50;;
6017;SDS011;3037;51.068;13.780;2024-03-02T02:47:46;86.27;;;44.80;;
6017;SDS011;3037;51.068;13.780;2024-03-02T02:50:12;79.40;;;43.97;;
6017;SDS011;3037;51.068;13.780;2024-03-02T02:52:38;75.53;;;42.37;;
6017;SDS011;3037;51.068;13.780;2024-03-02T02:55:05;74.90;;;42.60;;
6017;SDS011;3037;51.068;13.780;2024-03-02T02:57:33;85.37;;;43.20;;
6017;SDS011;3037;51.068;13.780;2024-03-02T03:00:07;76.80;;;43.73;;
6017;SDS011;3037;51.068;13.780;2024-03-02T03:02:47;79.20;;;43.40;;
6017;SDS011;3037;51.068;13.780;2024-03-02T03:05:14;84.70;;;44.47;;
6017;SDS011;3037;51.068;13.780;2024-03-02T03:07:40;79.17;;;44.97;;
6017;SDS011;3037;51.068;13.780;2024-03-02T03:10:06;78.60;;;43.70;;
6017;SDS011;3037;51.068;13.780;2024-03-02T03:12:33;78.80;;;43.13;;
6017;SDS011;3037;51.068;13.780;2024-03-02T03:14:59;77.13;;;42.63;;
6017;SDS011;3037;51.068;13.780;2024-03-02T03:17:25;88.63;;;46.20;;
6017;SDS011;3037;51.068;13.780;2024-03-02T03:19:50;78.60;;;43.43;;
6017;SDS011;3037;51.068;13.780;2024-03-02T03:22:16;81.57;;;42.80;;
6017;SDS011;3037;51.068;13.780;2024-03-02T03:24:42;83.10;;;42.90;;
6017;SDS011;3037;51.068;13.780;2024-03-02T03:27:07;97.47;;;49.00;;
6017;SDS011;3037;51.068;13.780;2024-03-02T03:29:33;83.63;;;44.90;;
6017;SDS011;3037;51.068;13.780;2024-03-02T03:31:58;91.80;;;45.80;;
6017;SDS011;3037;51.068;13.780;2024-03-02T03:34:24;85.77;;;45.97;;
6017;SDS011;3037;51.068;13.780;2024-03-02T03:36:49;87.40;;;44.93;;
6017;SDS011;3037;51.068;13.780;2024-03-02T03:39:15;96.50;;;43.37;;
6017;SDS011;3037;51.068;13.780;2024-03-02T03:41:40;108.53;;;48.37;;
6017;SDS011;3037;51.068;13.780;2024-03-02T03:44:06;99.47;;;45.10;;
6017;SDS011;3037;51.068;13.780;2024-03-02T03:46:31;87.90;;;44.77;;
6017;SDS011;3037;51.068;13.780;2024-03-02T03:48:57;93.33;;;45.00;;
6017;SDS011;3037;51.068;13.780;2024-03-02T03:51:22;104.27;;;47.07;;
6017;SDS011;3037;51.068;13.780;2024-03-02T03:53:48;97.80;;;47.50;;
6017;SDS011;3037;51.068;13.780;2024-03-02T03:56:13;89.00;;;45.43;;
6017;SDS011;3037;51.068;13.780;2024-03-02T03:58:39;98.40;;;47.10;;
6017;SDS011;3037;51.068;13.780;2024-03-02T04:01:04;103.57;;;46.87;;
6017;SDS011;3037;51.068;13.780;2024-03-02T04:03:30;102.37;;;46.27;;
6017;SDS011;3037;51.068;13.780;2024-03-02T04:05:56;95.30;;;49.40;;
6017;SDS011;3037;51.068;13.780;2024-03-02T04:08:21;102.37;;;46.20;;
6017;SDS011;3037;51.068;13.780;2024-03-02T04:10:47;95.80;;;45.57;;
6017;SDS011;3037;51.068;13.780;2024-03-02T04:13:12;100.43;;;48.70;;
6017;SDS011;3037;51.068;13.780;2024-03-02T04:15:38;94.13;;;43.20;;
6017;SDS011;3037;51.068;13.780;2024-03-02T04:18:03;91.67;;;45.67;;
6017;SDS011;3037;51.068;13.780;2024-03-02T04:20:29;90.60;;;45.07;;
6017;SDS011;3037;51.068;13.780;2024-03-02T04:22:55;111.40;;;47.90;;
6017;SDS011;3037;51.068;13.780;2024-03-02T04:25:20;102.20;;;47.00;;
6017;SDS011;3037;51.068;13.780;2024-03-02T04:27:46;114.70;;;47.67;;
6017;SDS011;3037;51.068;13.780;2024-03-02T04:30:12;86.93;;;44.13;;
6017;SDS011;3037;51.068;13.780;2024-03-02T04:32:37;93.23;;;45.60;;
6017;SDS011;3037;51.068;13.780;2024-03-02T04:35:03;91.63;;;42.60;;
6017;SDS011;3037;51.068;13.780;2024-03-02T04:37:30;104.00;;;45.80;;
6017;SDS011;3037;51.068;13.780;2024-03-02T04:39:57;99.93;;;45.90;;
6017;SDS011;3037;51.068;13.780;2024-03-02T04:42:22;95.13;;;42.20;;
6017;SDS011;3037;51.068;13.780;2024-03-02T04:44:48;104.27;;;44.27;;
6017;SDS011;3037;51.068;13.780;2024-03-02T04:47:13;102.07;;;47.90;;
6017;SDS011;3037;51.068;13.780;2024-03-02T04:49:39;93.40;;;44.90;;
6017;SDS011;3037;51.068;13.780;2024-03-02T04:52:04;94.57;;;42.33;;
6017;SDS011;3037;51.068;13.780;2024-03-02T04:54:30;86.77;;;42.83;;
6017;SDS011;3037;51.068;13.780;2024-03-02T04:56:55;93.30;;;44.50;;
6017;SDS011;3037;51.068;13.780;2024-03-02T04:59:21;97.80;;;44.07;;
6017;SDS011;3037;51.068;13.780;2024-03-02T05:01:46;94.17;;;41.17;;
6017;SDS011;3037;51.068;13.780;2024-03-02T05:04:12;90.87;;;43.70;;
6017;SDS011;3037;51.068;13.780;2024-03-02T05:06:38;87.50;;;43.20;;
6017;SDS011;3037;51.068;13.780;2024-03-02T05:09:07;90.27;;;41.23;;
6017;SDS011;3037;51.068;13.780;2024-03-02T05:11:33;84.97;;;40.70;;
6017;SDS011;3037;51.068;13.780;2024-03-02T05:14:02;92.23;;;41.57;;
6017;SDS011;3037;51.068;13.780;2024-03-02T05:16:37;74.83;;;40.27;;
6017;SDS011;3037;51.068;13.780;2024-03-02T05:19:03;90.23;;;39.20;;
6017;SDS011;3037;51.068;13.780;2024-03-02T05:21:31;82.50;;;39.60;;
6017;SDS011;3037;51.068;13.780;2024-03-02T05:23:57;94.13;;;39.53;;
6017;SDS011;3037;51.068;13.780;2024-03-02T05:26:22;85.93;;;39.30;;
6017;SDS011;3037;51.068;13.780;2024-03-02T05:28:48;85.60;;;38.57;;
6017;SDS011;3037;51.068;13.780;2024-03-02T05:31:14;87.50;;;39.20;;
6017;SDS011;3037;51.068;13.780;2024-03-02T05:33:40;76.37;;;39.50;;
6017;SDS011;3037;51.068;13.780;2024-03-02T05:36:06;69.53;;;39.90;;
6017;SDS011;3037;51.068;13.780;2024-03-02T05:38:32;81.67;;;38.87;;
6017;SDS011;3037;51.068;13.780;2024-03-02T05:40:59;73.60;;;36.13;;
6017;SDS011;3037;51.068;13.780;2024-03-02T05:43:25;83.17;;;39.10;;
6017;SDS011;3037;51.068;13.780;2024-03-02T05:45:50;77.67;;;38.67;;
6017;SDS011;3037;51.068;13.780;2024-03-02T05:48:16;70.83;;;38.90;;
6017;SDS011;3037;51.068;13.780;2024-03-02T05:50:41;72.43;;;36.47;;
6017;SDS011;3037;51.068;13.780;2024-03-02T05:53:07;72.57;;;37.63;;
6017;SDS011;3037;51.068;13.780;2024-03-02T05:55:32;65.27;;;36.00;;
6017;SDS011;3037;51.068;13.780;2024-03-02T05:57:58;74.17;;;36.40;;
6017;SDS011;3037;51.068;13.780;2024-03-02T06:00:23;63.20;;;35.03;;
6017;SDS011;3037;51.068;13.780;2024-03-02T06:02:49;73.20;;;36.37;;
6017;SDS011;3037;51.068;13.780;2024-03-02T06:05:14;72.87;;;36.37;;
6017;SDS011;3037;51.068;13.780;2024-03-02T06:07:41;64.83;;;36.50;;
6017;SDS011;3037;51.068;13.780;2024-03-02T06:10:08;68.63;;;35.50;;
6017;SDS011;3037;51.068;13.780;2024-03-02T06:12:33;68.33;;;35.90;;
6017;SDS011;3037;51.068;13.780;2024-03-02T06:14:59;71.40;;;35.90;;
6017;SDS011;3037;51.068;13.780;2024-03-02T06:17:25;77.10;;;37.67;;
6017;SDS011;3037;51.068;13.780;2024-03-02T06:19:50;71.43;;;37.37;;
6017;SDS011;3037;51.068;13.780;2024-03-02T06:22:16;73.90;;;36.60;;
6017;SDS011;3037;51.068;13.780;2024-03-02T06:24:41;73.57;;;37.50;;
6017;SDS011;3037;51.068;13.780;2024-03-02T06:27:07;72.23;;;37.10;;
6017;SDS011;3037;51.068;13.780;2024-03-02T06:29:33;75.80;;;41.17;;
6017;SDS011;3037;51.068;13.780;2024-03-02T06:31:58;87.23;;;40.30;;
6017;SDS011;3037;51.068;13.780;2024-03-02T06:34:24;78.57;;;38.97;;
6017;SDS011;3037;51.068;13.780;2024-03-02T06:36:50;74.63;;;38.00;;
6017;SDS011;3037;51.068;13.780;2024-03-02T06:39:15;84.07;;;36.57;;
6017;SDS011;3037;51.068;13.780;2024-03-02T06:41:41;71.60;;;37.97;;
6017;SDS011;3037;51.068;13.780;2024-03-02T06:44:07;77.60;;;37.93;;
6017;SDS011;3037;51.068;13.780;2024-03-02T06:46:33;74.77;;;38.83;;
6017;SDS011;3037;51.068;13.780;2024-03-02T06:48:58;77.07;;;40.30;;
6017;SDS011;3037;51.068;13.780;2024-03-02T06:51:24;75.80;;;37.70;;
6017;SDS011;3037;51.068;13.780;2024-03-02T06:53:49;81.53;;;39.60;;
6017;SDS011;3037;51.068;13.780;2024-03-02T06:56:15;78.77;;;37.90;;
6017;SDS011;3037;51.068;13.780;2024-03-02T06:58:40;76.87;;;37.67;;
6017;SDS011;3037;51.068;13.780;2024-03-02T07:01:07;71.97;;;37.20;;
6017;SDS011;3037;51.068;13.780;2024-03-02T07:03:33;78.63;;;38.93;;
6017;SDS011;3037;51.068;13.780;2024-03-02T07:05:58;77.03;;;38.27;;
6017;SDS011;3037;51.068;13.780;2024-03-02T07:08:24;83.07;;;39.73;;
6017;SDS011;3037;51.068;13.780;2024-03-02T07:10:49;73.53;;;34.70;;
6017;SDS011;3037;51.068;13.780;2024-03-02T07:13:15;68.17;;;35.23;;
6017;SDS011;3037;51.068;13.780;2024-03-02T07:15:40;76.33;;;38.33;;
6017;SDS011;3037;51.068;13.780;2024-03-02T07:18:24;83.60;;;37.80;;
6017;SDS011;3037;51.068;13.780;2024-03-02T07:20:50;72.20;;;35.03;;
6017;SDS011;3037;51.068;13.780;2024-03-02T07:23:15;68.93;;;35.50;;
6017;SDS011;3037;51.068;13.780;2024-03-02T07:25:41;77.47;;;35.80;;
6017;SDS011;3037;51.068;13.780;2024-03-02T07:28:06;71.13;;;35.63;;
6017;SDS011;3037;51.068;13.780;2024-03-02T07:30:32;79.83;;;38.57;;
6017;SDS011;3037;51.068;13.780;2024-03-02T07:32:58;74.87;;;38.87;;
6017;SDS011;3037;51.068;13.780;2024-03-02T07:35:24;89.90;;;39.70;;
6017;SDS011;3037;51.068;13.780;2024-03-02T07:37:52;85.93;;;42.50;;
6017;SDS011;3037;51.068;13.780;2024-03-02T07:40:18;82.33;;;38.63;;
6017;SDS011;3037;51.068;13.780;2024-03-02T07:42:44;79.47;;;37.43;;
6017;SDS011;3037;51.068;13.780;2024-03-02T07:45:10;90.87;;;39.83;;
6017;SDS011;3037;51.068;13.780;2024-03-02T07:47:36;89.80;;;38.60;;
6017;SDS011;3037;51.068;13.780;2024-03-02T07:50:01;84.93;;;40.40;;
6017;SDS011;3037;51.068;13.780;2024-03-02T07:52:27;90.00;;;39.63;;
6017;SDS011;3037;51.068;13.780;2024-03-02T07:54:53;84.33;;;40.47;;
6017;SDS011;3037;51.068;13.780;2024-03-02T07:57:19;84.40;;;39.40;;
6017;SDS011;3037;51.068;13.780;2024-03-02T07:59:44;88.07;;;39.47;;
6017;SDS011;3037;51.068;13.780;2024-03-02T08:02:10;81.23;;;39.70;;
6017;SDS011;3037;51.068;13.780;2024-03-02T08:04:35;86.13;;;39.67;;
6017;SDS011;3037;51.068;13.780;2024-03-02T08:07:02;100.83;;;41.03;;
6017;SDS011;3037;51.068;13.780;2024-03-02T08:09:27;75.30;;;37.60;;
6017;SDS011;3037;51.068;13.780;2024-03-02T08:11:53;91.63;;;38.70;;
6017;SDS011;3037;51.068;13.780;2024-03-02T08:14:19;75.67;;;36.53;;
6017;SDS011;3037;51.068;13.780;2024-03-02T08:16:44;72.90;;;37.83;;
6017;SDS011;3037;51.068;13.780;2024-03-02T08:19:10;71.77;;;34.27;;
6017;SDS011;3037;51.068;13.780;2024-03-02T08:21:36;76.07;;;36.27;;
6017;SDS011;3037;51.068;13.780;2024-03-02T08:24:02;66.37;;;32.17;;
6017;SDS011;3037;51.068;13.780;2024-03-02T08:26:28;59.40;;;29.07;;
6017;SDS011;3037;51.068;13.780;2024-03-02T08:28:54;64.73;;;31.20;;
6017;SDS011;3037;51.068;13.780;2024-03-02T08:31:20;64.00;;;30.73;;
6017;SDS011;3037;51.068;13.780;2024-03-02T08:33:46;48.83;;;26.83;;
6017;SDS011;3037;51.068;13.780;2024-03-02T08:36:11;54.63;;;27.17;;
6017;SDS011;3037;51.068;13.780;2024-03-02T08:38:37;52.87;;;26.67;;
6017;SDS011;3037;51.068;13.780;2024-03-02T08:41:02;56.33;;;25.37;;
6017;SDS011;3037;51.068;13.780;2024-03-02T08:43:28;53.40;;;25.87;;
6017;SDS011;3037;51.068;13.780;2024-03-02T08:45:54;50.27;;;23.77;;
6017;SDS011;3037;51.068;13.780;2024-03-02T08:48:20;43.10;;;22.97;;
6017;SDS011;3037;51.068;13.780;2024-03-02T08:50:46;40.53;;;21.50;;
6017;SDS011;3037;51.068;13.780;2024-03-02T08:53:11;42.43;;;22.20;;
6017;SDS011;3037;51.068;13.780;2024-03-02T08:55:37;34.77;;;19.33;;
6017;SDS011;3037;51.068;13.780;2024-03-02T08:58:02;33.90;;;18.30;;
6017;SDS011;3037;51.068;13.780;2024-03-02T09:00:28;37.23;;;19.73;;
6017;SDS011;3037;51.068;13.780;2024-03-02T09:02:54;39.37;;;19.77;;
6017;SDS011;3037;51.068;13.780;2024-03-02T09:05:19;34.13;;;19.47;;
6017;SDS011;3037;51.068;13.780;2024-03-02T09:07:45;41.13;;;19.70;;
6017;SDS011;3037;51.068;13.780;2024-03-02T09:10:10;33.80;;;18.20;;
6017;SDS011;3037;51.068;13.780;2024-03-02T09:12:36;35.03;;;19.50;;
6017;SDS011;3037;51.068;13.780;2024-03-02T09:15:03;34.37;;;19.33;;
6017;SDS011;3037;51.068;13.780;2024-03-02T09:17:29;32.20;;;18.63;;
6017;SDS011;3037;51.068;13.780;2024-03-02T09:19:54;36.37;;;19.43;;
6017;SDS011;3037;51.068;13.780;2024-03-02T09:22:20;37.17;;;18.90;;
6017;SDS011;3037;51.068;13.780;2024-03-02T09:24:46;39.87;;;22.07;;
6017;SDS011;3037;51.068;13.780;2024-03-02T09:27:11;34.00;;;19.37;;
6017;SDS011;3037;51.068;13.780;2024-03-02T09:29:37;34.70;;;19.40;;
6017;SDS011;3037;51.068;13.780;2024-03-02T09:32:03;30.83;;;18.97;;
6017;SDS011;3037;51.068;13.780;2024-03-02T09:34:30;38.03;;;21.37;;
6017;SDS011;3037;51.068;13.780;2024-03-02T09:36:56;36.30;;;20.27;;
6017;SDS011;3037;51.068;13.780;2024-03-02T09:39:22;38.93;;;21.60;;
6017;SDS011;3037;51.068;13.780;2024-03-02T09:41:48;42.37;;;22.20;;
6017;SDS011;3037;51.068;13.780;2024-03-02T09:44:13;44.93;;;23.23;;
6017;SDS011;3037;51.068;13.780;2024-03-02T09:46:39;52.20;;;22.77;;
6017;SDS011;3037;51.068;13.780;2024-03-02T09:49:05;46.23;;;23.93;;
6017;SDS011;3037;51.068;13.780;2024-03-02T09:51:31;53.70;;;27.23;;
6017;SDS011;3037;51.068;13.780;2024-03-02T09:53:56;46.33;;;26.00;;
6017;SDS011;3037;51.068;13.780;2024-03-02T09:56:22;51.40;;;26.03;;
6017;SDS011;3037;51.068;13.780;2024-03-02T09:58:48;51.07;;;24.73;;
6017;SDS011;3037;51.068;13.780;2024-03-02T10:01:14;48.27;;;24.97;;
6017;SDS011;3037;51.068;13.780;2024-03-02T10:03:39;58.53;;;27.30;;
6017;SDS011;3037;51.068;13.780;2024-03-02T10:06:21;66.43;;;29.30;;
6017;SDS011;3037;51.068;13.780;2024-03-02T10:08:48;53.50;;;26.30;;
6017;SDS011;3037;51.068;13.780;2024-03-02T10:11:35;52.43;;;27.60;;
6017;SDS011;3037;51.068;13.780;2024-03-02T10:14:06;55.97;;;27.03;;
6017;SDS011;3037;51.068;13.780;2024-03-02T10:16:34;67.93;;;32.10;;
6017;SDS011;3037;51.068;13.780;2024-03-02T10:21:48;64.77;;;28.87;;
6017;SDS011;3037;51.068;13.780;2024-03-02T10:24:15;66.50;;;29.87;;
6017;SDS011;3037;51.068;13.780;2024-03-02T10:26:41;61.33;;;28.20;;
6017;SDS011;3037;51.068;13.780;2024-03-02T10:29:08;71.90;;;30.07;;
6017;SDS011;3037;51.068;13.780;2024-03-02T10:31:38;63.63;;;30.30;;
6017;SDS011;3037;51.068;13.780;2024-03-02T10:34:04;74.80;;;29.07;;
6017;SDS011;3037;51.068;13.780;2024-03-02T10:36:30;48.00;;;26.87;;
6017;SDS011;3037;51.068;13.780;2024-03-02T10:38:58;53.37;;;24.87;;
6017;SDS011;3037;51.068;13.780;2024-03-02T10:41:24;50.07;;;26.33;;
6017;SDS011;3037;51.068;13.780;2024-03-02T10:43:52;45.73;;;26.23;;
6017;SDS011;3037;51.068;13.780;2024-03-02T10:46:24;54.20;;;27.20;;
6017;SDS011;3037;51.068;13.780;2024-03-02T10:48:54;47.00;;;24.70;;
6017;SDS011;3037;51.068;13.780;2024-03-02T10:51:20;47.40;;;23.10;;
6017;SDS011;3037;51.068;13.780;2024-03-02T10:53:46;41.97;;;21.67;;
6017;SDS011;3037;51.068;13.780;2024-03-02T10:56:11;43.90;;;22.80;;
6017;SDS011;3037;51.068;13.780;2024-03-02T10:58:47;35.23;;;19.83;;
6017;SDS011;3037;51.068;13.780;2024-03-02T11:01:15;30.67;;;16.20;;
6017;SDS011;3037;51.068;13.780;2024-03-02T11:03:42;35.00;;;19.30;;
6017;SDS011;3037;51.068;13.780;2024-03-02T11:06:10;33.43;;;18.20;;
6017;SDS011;3037;51.068;13.780;2024-03-02T11:08:38;25.80;;;15.90;;
6017;SDS011;3037;51.068;13.780;2024-03-02T11:11:06;43.53;;;17.97;;
6017;SDS011;3037;51.068;13.780;2024-03-02T11:13:37;35.73;;;17.50;;
6017;SDS011;3037;51.068;13.780;2024-03-02T11:16:47;28.67;;;14.50;;
6017;SDS011;3037;51.068;13.780;2024-03-02T11:19:01;24.47;;;14.80;;
6017;SDS011;3037;51.068;13.780;2024-03-02T11:21:35;30.20;;;16.00;;
6017;SDS011;3037;51.068;13.780;2024-03-02T11:26:46;22.50;;;12.60;;
6017;SDS011;3037;51.068;13.780;2024-03-02T11:32:05;25.17;;;15.10;;
6017;SDS011;3037;51.068;13.780;2024-03-02T11:34:39;31.47;;;15.30;;
6017;SDS011;3037;51.068;13.780;2024-03-02T11:37:10;30.03;;;15.47;;
6017;SDS011;3037;51.068;13.780;2024-03-02T11:39:37;26.00;;;14.77;;
6017;SDS011;3037;51.068;13.780;2024-03-02T11:42:05;30.90;;;15.53;;
6017;SDS011;3037;51.068;13.780;2024-03-02T11:44:34;26.27;;;13.80;;
6017;SDS011;3037;51.068;13.780;2024-03-02T11:47:02;19.23;;;11.93;;
6017;SDS011;3037;51.068;13.780;2024-03-02T11:49:37;16.90;;;10.70;;
6017;SDS011;3037;51.068;13.780;2024-03-02T11:52:03;13.43;;;10.40;;
6017;SDS011;3037;51.068;13.780;2024-03-02T11:54:31;22.57;;;11.63;;
6017;SDS011;3037;51.068;13.780;2024-03-02T11:57:03;18.17;;;11.37;;
6017;SDS011;3037;51.068;13.780;2024-03-02T11:59:29;17.57;;;11.77;;
6017;SDS011;3037;51.068;13.780;2024-03-02T12:01:55;17.50;;;11.40;;
6017;SDS011;3037;51.068;13.780;2024-03-02T12:04:21;18.83;;;12.10;;
6017;SDS011;3037;51.068;13.780;2024-03-02T12:06:48;18.47;;;13.10;;
6017;SDS011;3037;51.068;13.780;2024-03-02T12:09:29;24.50;;;14.03;;
6017;SDS011;3037;51.068;13.780;2024-03-02T12:12:28;31.03;;;16.00;;
6017;SDS011;3037;51.068;13.780;2024-03-02T12:14:51;30.00;;;17.50;;
6017;SDS011;3037;51.068;13.780;2024-03-02T12:17:18;36.03;;;17.70;;
6017;SDS011;3037;51.068;13.780;2024-03-02T12:19:44;33.53;;;15.30;;
6017;SDS011;3037;51.068;13.780;2024-03-02T12:22:10;27.00;;;16.30;;
6017;SDS011;3037;51.068;13.780;2024-03-02T12:24:36;35.90;;;16.47;;
6017;SDS011;3037;51.068;13.780;2024-03-02T12:27:02;29.27;;;15.20;;
6017;SDS011;3037;51.068;13.780;2024-03-02T12:29:29;27.60;;;14.70;;
6017;SDS011;3037;51.068;13.780;2024-03-02T12:31:55;37.40;;;16.57;;
6017;SDS011;3037;51.068;13.780;2024-03-02T12:34:22;34.10;;;16.90;;
6017;SDS011;3037;51.068;13.780;2024-03-02T12:36:50;29.60;;;16.90;;
6017;SDS011;3037;51.068;13.780;2024-03-02T12:39:18;28.70;;;17.23;;
6017;SDS011;3037;51.068;13.780;2024-03-02T12:41:45;30.83;;;17.47;;
6017;SDS011;3037;51.068;13.780;2024-03-02T12:44:11;33.50;;;17.03;;
6017;SDS011;3037;51.068;13.780;2024-03-02T12:46:37;21.83;;;14.43;;
6017;SDS011;3037;51.068;13.780;2024-03-02T12:49:09;24.77;;;14.03;;
6017;SDS011;3037;51.068;13.780;2024-03-02T12:51:36;26.40;;;15.53;;
6017;SDS011;3037;51.068;13.780;2024-03-02T12:54:05;32.27;;;14.40;;
6017;SDS011;3037;51.068;13.780;2024-03-02T12:56:31;27.33;;;15.10;;
6017;SDS011;3037;51.068;13.780;2024-03-02T12:58:58;23.37;;;14.47;;
6017;SDS011;3037;51.068;13.780;2024-03-02T13:01:24;24.73;;;14.70;;
6017;SDS011;3037;51.068;13.780;2024-03-02T13:03:50;24.10;;;14.90;;
6017;SDS011;3037;51.068;13.780;2024-03-02T13:06:17;29.03;;;15.23;;
6017;SDS011;3037;51.068;13.780;2024-03-02T13:08:44;27.87;;;15.07;;
6017;SDS011;3037;51.068;13.780;2024-03-02T13:11:10;31.30;;;16.50;;
6017;SDS011;3037;51.068;13.780;2024-03-02T13:13:36;39.27;;;17.23;;
6017;SDS011;3037;51.068;13.780;2024-03-02T13:16:04;30.60;;;15.93;;
6017;SDS011;3037;51.068;13.780;2024-03-02T13:18:33;28.80;;;15.43;;
6017;SDS011;3037;51.068;13.780;2024-03-02T13:20:58;24.83;;;16.60;;
6017;SDS011;3037;51.068;13.780;2024-03-02T13:23:24;20.70;;;15.00;;
6017;SDS011;3037;51.068;13.780;2024-03-02T13:25:50;26.90;;;16.10;;
6017;SDS011;3037;51.068;13.780;2024-03-02T13:28:15;34.50;;;15.93;;
6017;SDS011;3037;51.068;13.780;2024-03-02T13:30:41;30.47;;;16.70;;
6017;SDS011;3037;51.068;13.780;2024-03-02T13:33:06;26.13;;;16.90;;
6017;SDS011;3037;51.068;13.780;2024-03-02T13:35:32;34.87;;;18.53;;
6017;SDS011;3037;51.068;13.780;2024-03-02T13:37:57;25.80;;;15.60;;
6017;SDS011;3037;51.068;13.780;2024-03-02T13:40:23;26.77;;;14.90;;
6017;SDS011;3037;51.068;13.780;2024-03-02T13:42:48;24.13;;;13.60;;
6017;SDS011;3037;51.068;13.780;2024-03-02T13:45:16;28.43;;;15.07;;
6017;SDS011;3037;51.068;13.780;2024-03-02T13:47:43;26.13;;;14.13;;
6017;SDS011;3037;51.068;13.780;2024-03-02T13:50:08;24.97;;;14.40;;
6017;SDS011;3037;51.068;13.780;2024-03-02T13:52:34;19.03;;;12.80;;
6017;SDS011;3037;51.068;13.780;2024-03-02T13:54:59;24.90;;;14.63;;
6017;SDS011;3037;51.068;13.780;2024-03-02T13:57:25;25.63;;;14.00;;
6017;SDS011;3037;51.068;13.780;2024-03-02T13:59:51;17.80;;;12.73;;
6017;SDS011;3037;51.068;13.780;2024-03-02T14:02:17;29.73;;;12.60;;
6017;SDS011;3037;51.068;13.780;2024-03-02T14:04:43;24.13;;;12.47;;
6017;SDS011;3037;51.068;13.780;2024-03-02T14:07:08;25.20;;;14.13;;
6017;SDS011;3037;51.068;13.780;2024-03-02T14:09:35;23.63;;;14.40;;
6017;SDS011;3037;51.068;13.780;2024-03-02T14:12:01;21.00;;;13.47;;
6017;SDS011;3037;51.068;13.780;2024-03-02T14:14:27;19.97;;;13.70;;
6017;SDS011;3037;51.068;13.780;2024-03-02T14:16:53;21.80;;;13.20;;
6017;SDS011;3037;51.068;13.780;2024-03-02T14:19:21;23.60;;;13.10;;
6017;SDS011;3037;51.068;13.780;2024-03-02T14:21:46;29.90;;;14.47;;
6017;SDS011;3037;51.068;13.780;2024-03-02T14:24:12;25.83;;;14.60;;
6017;SDS011;3037;51.068;13.780;2024-03-02T14:26:38;25.73;;;13.77;;
6017;SDS011;3037;51.068;13.780;2024-03-02T14:29:04;28.60;;;13.77;;
6017;SDS011;3037;51.068;13.780;2024-03-02T14:31:29;23.57;;;14.70;;
6017;SDS011;3037;51.068;13.780;2024-03-02T14:33:56;26.13;;;14.13;;
6017;SDS011;3037;51.068;13.780;2024-03-02T14:36:22;25.33;;;15.10;;
6017;SDS011;3037;51.068;13.780;2024-03-02T14:38:48;26.63;;;13.93;;
6017;SDS011;3037;51.068;13.780;2024-03-02T14:41:14;30.00;;;15.70;;
6017;SDS011;3037;51.068;13.780;2024-03-02T14:43:39;27.40;;;14.63;;
6017;SDS011;3037;51.068;13.780;2024-03-02T14:46:05;26.17;;;14.30;;